createdAt,value
2019-04-01T00:00:38.723Z,94276.94
2019-04-01T00:03:09.196Z,94273.02
2019-04-01T00:05:37.905Z,94280.27
2019-04-01T00:08:06.625Z,94274.46
2019-04-01T00:10:35.404Z,94275.24
2019-04-01T00:13:04.067Z,94279.78
2019-04-01T00:15:32.746Z,94280.59
2019-04-01T00:18:01.440Z,94285.11
2019-04-01T00:20:30.126Z,94285.09
2019-04-01T00:22:58.921Z,94281.66
2019-04-01T00:25:27.672Z,94283.89
2019-04-01T00:27:56.361Z,94282.97
2019-04-01T00:30:25.043Z,94289.19
2019-04-01T00:32:53.766Z,94287.79
2019-04-01T00:35:22.472Z,94289.91
2019-04-01T00:37:51.143Z,94280.62
2019-04-01T00:40:19.829Z,94282.39
2019-04-01T00:42:52.850Z,94273.67
2019-04-01T00:45:25.831Z,94275.17
2019-04-01T00:47:54.517Z,94281.63
2019-04-01T00:50:23.204Z,94280.61
2019-04-01T00:52:51.882Z,94270.13
2019-04-01T00:55:20.630Z,94280.38
2019-04-01T00:57:49.312Z,94281.59
2019-04-01T01:00:19.138Z,94288.03
2019-04-01T01:02:47.838Z,94282.84
2019-04-01T01:05:16.515Z,94288.09
2019-04-01T01:07:45.198Z,94289.69
2019-04-01T01:10:14.325Z,94282.48
2019-04-01T01:12:43.002Z,94288.62
2019-04-01T01:15:11.921Z,94294.68
2019-04-01T01:17:40.605Z,94291.56
2019-04-01T01:20:09.524Z,94289.07
2019-04-01T01:22:38.245Z,94289.56
2019-04-01T01:25:07.035Z,94298.31
2019-04-01T01:27:35.717Z,94292.88
2019-04-01T01:30:06.287Z,94287.89
2019-04-01T01:32:34.987Z,94276.44
2019-04-01T01:35:03.639Z,94289.88
2019-04-01T01:37:32.316Z,94284.87
2019-04-01T01:40:00.996Z,94287.42
2019-04-01T01:42:29.809Z,94289.19
2019-04-01T01:44:58.500Z,94294.95
2019-04-01T01:47:27.198Z,94285.23
2019-04-01T01:49:55.887Z,94283.32
2019-04-01T01:52:24.557Z,94290.05
2019-04-01T01:54:53.237Z,94283.70
2019-04-01T01:57:21.897Z,94282.63
2019-04-01T01:59:50.598Z,94283.59
2019-04-01T02:02:19.250Z,94289.41
2019-04-01T02:04:47.941Z,94286.48
2019-04-01T02:07:16.620Z,94280.03
2019-04-01T02:09:45.294Z,94278.88
2019-04-01T02:12:13.970Z,94278.03
2019-04-01T02:14:42.660Z,94280.27
2019-04-01T02:17:11.336Z,94288.20
2019-04-01T02:19:40.021Z,94279.14
2019-04-01T02:22:08.700Z,94284.37
2019-04-01T02:24:37.425Z,94284.84
2019-04-01T02:27:06.206Z,94286.30
2019-04-01T02:29:34.913Z,94271.61
2019-04-01T02:32:03.598Z,94281.10
2019-04-01T02:34:32.257Z,94282.89
2019-04-01T02:37:00.992Z,94277.64
2019-04-01T02:39:29.610Z,94289.59
2019-04-01T02:41:58.289Z,94297.73
2019-04-01T02:44:26.970Z,94292.41
2019-04-01T02:46:55.653Z,94306.66
2019-04-01T02:49:24.348Z,94300.64
2019-04-01T02:51:53.010Z,94293.39
2019-04-01T02:54:21.724Z,94309.59
2019-04-01T02:56:50.410Z,94299.85
2019-04-01T02:59:19.099Z,94303.39
2019-04-01T03:01:47.793Z,94283.61
2019-04-01T03:04:16.480Z,94298.55
2019-04-01T03:06:45.152Z,94304.52
2019-04-01T03:09:13.868Z,94303.98
2019-04-01T03:11:42.544Z,94288.01
2019-04-01T03:14:11.194Z,94302.37
2019-04-01T03:16:39.884Z,94303.41
2019-04-01T03:19:08.865Z,94292.52
2019-04-01T03:21:37.557Z,94302.67
2019-04-01T03:24:06.236Z,94312.22
2019-04-01T03:26:34.960Z,94299.95
2019-04-01T03:29:03.663Z,94298.45
2019-04-01T03:31:32.570Z,94313.57
2019-04-01T03:34:01.313Z,94306.38
2019-04-01T03:36:29.992Z,94315.19
2019-04-01T03:38:58.659Z,94316.69
2019-04-01T03:41:27.346Z,94309.38
2019-04-01T03:43:56.034Z,94313.39
2019-04-01T03:46:24.732Z,94312.95
2019-04-01T03:48:53.505Z,94314.63
2019-04-01T03:51:22.189Z,94311.30
2019-04-01T03:53:50.886Z,94310.69
2019-04-01T03:56:19.594Z,94311.49
2019-04-01T03:58:48.262Z,94318.97
2019-04-01T04:01:17.147Z,94326.20
2019-04-01T04:03:45.922Z,94323.20
2019-04-01T04:06:14.629Z,94326.02
2019-04-01T04:08:43.339Z,94329.14
2019-04-01T04:11:12.023Z,94329.48
2019-04-01T04:13:40.722Z,94335.61
2019-04-01T04:16:09.399Z,94328.83
2019-04-01T04:18:38.076Z,94317.99
2019-04-01T04:21:06.895Z,94347.09
2019-04-01T04:23:35.561Z,94343.23
2019-04-01T04:26:04.246Z,94344.54
2019-04-01T04:28:32.908Z,94351.40
2019-04-01T04:31:01.591Z,94348.85
2019-04-01T04:33:30.259Z,94355.75
2019-04-01T04:35:58.967Z,94359.30
2019-04-01T04:38:27.710Z,94356.09
2019-04-01T04:40:56.430Z,94354.89
2019-04-01T04:43:25.117Z,94354.53
2019-04-01T04:45:53.828Z,94357.47
2019-04-01T04:48:22.485Z,94364.47
2019-04-01T04:50:51.170Z,94357.94
2019-04-01T04:53:19.858Z,94359.71
2019-04-01T04:55:48.539Z,94361.66
2019-04-01T04:58:17.227Z,94360.68
2019-04-01T05:00:45.919Z,94361.35
2019-04-01T05:03:14.682Z,94359.88
2019-04-01T05:05:43.360Z,94360.33
2019-04-01T05:08:12.052Z,94367.39
2019-04-01T05:10:40.754Z,94367.72
2019-04-01T05:13:09.445Z,94360.34
2019-04-01T05:15:38.178Z,94357.73
2019-04-01T05:18:07.215Z,94367.79
2019-04-01T05:20:37.910Z,94361.78
2019-04-01T05:23:07.294Z,94370.22
2019-04-01T05:25:37.619Z,94373.48
2019-04-01T05:28:06.304Z,94371.29
2019-04-01T05:30:37.068Z,94372.30
2019-04-01T05:33:05.800Z,94374.77
2019-04-01T05:35:37.448Z,94370.20
2019-04-01T05:38:06.934Z,94369.75
2019-04-01T05:40:35.878Z,94380.35
2019-04-01T05:43:04.764Z,94373.02
2019-04-01T05:45:33.650Z,94375.98
2019-04-01T05:48:02.458Z,94326.30
2019-04-01T05:50:31.796Z,94371.09
2019-04-01T05:53:00.714Z,94374.48
2019-04-01T05:55:29.411Z,94368.39
2019-04-01T05:57:58.815Z,94370.97
2019-04-01T06:00:29.233Z,94370.80
2019-04-01T06:02:59.562Z,94342.94
2019-04-01T06:05:28.637Z,94368.25
2019-04-01T06:07:57.693Z,94369.59
2019-04-01T06:10:26.398Z,94360.83
2019-04-01T06:12:55.388Z,94362.94
2019-04-01T06:15:24.452Z,94366.56
2019-04-01T06:17:53.259Z,94373.66
2019-04-01T06:20:21.972Z,94376.02
2019-04-01T06:22:50.682Z,94369.84
2019-04-01T06:25:19.441Z,94372.61
2019-04-01T06:27:48.616Z,94368.19
2019-04-01T06:30:17.438Z,94376.29
2019-04-01T06:32:49.296Z,94369.59
2019-04-01T06:35:18.078Z,94378.25
2019-04-01T06:37:47.054Z,94372.06
2019-04-01T06:40:16.056Z,94353.22
2019-04-01T06:42:44.887Z,94372.80
2019-04-01T06:45:14.067Z,94370.95
2019-04-01T06:47:42.869Z,94370.95
2019-04-01T06:50:12.008Z,94376.58
2019-04-01T06:52:41.663Z,94377.31
2019-04-01T06:55:10.355Z,94379.30
2019-04-01T06:57:40.308Z,94386.70
2019-04-01T07:00:09.828Z,94386.70
2019-04-01T07:02:38.883Z,94375.75
2019-04-01T07:05:08.026Z,94379.09
2019-04-01T07:07:37.233Z,94380.52
2019-04-01T07:10:06.660Z,94380.78
2019-04-01T07:12:36.016Z,94379.34
2019-04-01T07:15:07.472Z,94375.92
2019-04-01T07:17:36.177Z,94376.37
2019-04-01T07:20:08.754Z,94378.77
2019-04-01T07:22:36.969Z,94380.28
2019-04-01T07:25:06.078Z,94377.63
2019-04-01T07:27:38.632Z,94380.53
2019-04-01T07:30:07.970Z,94383.83
2019-04-01T07:32:36.747Z,94381.56
2019-04-01T07:35:06.562Z,94379.36
2019-04-01T07:37:35.626Z,94378.92
2019-04-01T07:40:06.671Z,94375.71
2019-04-01T07:42:36.165Z,94381.96
2019-04-01T07:45:07.113Z,94380.92
2019-04-01T07:47:36.007Z,94383.17
2019-04-01T07:50:06.434Z,94346.47
2019-04-01T07:52:35.356Z,94391.22
2019-04-01T07:55:05.605Z,94394.70
2019-04-01T07:57:36.323Z,94351.92
2019-04-01T08:00:06.869Z,94391.14
2019-04-01T08:02:35.802Z,94388.78
2019-04-01T08:05:05.638Z,94369.30
2019-04-01T08:07:34.866Z,94385.05
2019-04-01T08:10:05.282Z,94387.02
2019-04-01T08:12:34.571Z,94383.48
2019-04-01T08:15:06.446Z,94385.98
2019-04-01T08:17:35.715Z,94377.45
2019-04-01T08:20:05.139Z,94381.09
2019-04-01T08:22:33.819Z,94374.91
2019-04-01T08:28:16.883Z,94377.39
2019-04-01T08:30:45.774Z,94376.34
2019-04-01T08:33:15.416Z,94369.03
2019-04-01T08:35:44.180Z,94374.03
2019-04-01T08:38:13.480Z,94368.67
2019-04-01T08:40:42.476Z,94377.66
2019-04-01T08:43:11.336Z,94371.45
2019-04-01T08:45:40.272Z,94365.67
2019-04-01T08:48:18.045Z,94364.41
2019-04-01T08:51:20.431Z,94364.22
2019-04-01T08:54:09.810Z,94353.72
2019-04-01T08:56:39.249Z,94353.55
2019-04-01T08:59:09.812Z,94355.97
2019-04-01T09:01:38.967Z,94348.36
2019-04-01T09:04:08.158Z,94343.77
2019-04-01T09:06:37.182Z,94342.39
2019-04-01T09:09:07.153Z,94350.61
2019-04-01T09:11:38.351Z,94334.30
2019-04-01T09:14:07.341Z,94341.48
2019-04-01T09:16:36.376Z,94345.47
2019-04-01T09:19:06.517Z,94342.31
2019-04-01T09:21:35.854Z,94336.02
2019-04-01T09:27:23.117Z,94302.66
2019-04-01T09:29:57.371Z,94334.06
2019-04-01T09:32:58.727Z,94329.03
2019-04-01T09:35:27.659Z,94323.72
2019-04-01T09:37:56.399Z,94322.90
2019-04-01T09:40:26.230Z,94324.28
2019-04-01T09:42:55.090Z,94325.63
2019-04-01T09:45:24.040Z,94315.05
2019-04-01T09:47:52.913Z,94311.33
2019-04-01T09:50:21.768Z,94307.83
2019-04-01T09:52:50.804Z,94302.86
2019-04-01T09:55:19.643Z,94303.81
2019-04-01T09:57:49.292Z,94299.98
2019-04-01T10:00:18.091Z,94314.22
2019-04-01T10:02:46.848Z,94296.64
2019-04-01T10:05:16.334Z,94299.64
2019-04-01T10:07:45.436Z,94284.94
2019-04-01T10:10:14.826Z,94260.95
2019-04-01T10:12:43.657Z,94287.91
2019-04-01T10:15:16.078Z,94281.55
2019-04-01T10:17:45.515Z,94277.33
2019-04-01T10:20:16.161Z,94265.01
2019-04-01T10:22:47.456Z,94250.33
2019-04-01T10:25:16.662Z,94272.99
2019-04-01T10:27:47.429Z,94274.68
2019-04-01T10:30:17.436Z,94272.27
2019-04-01T10:32:46.600Z,94272.62
2019-04-01T10:35:15.479Z,94278.13
2019-04-01T10:37:44.252Z,94262.88
2019-04-01T10:40:13.587Z,94268.00
2019-04-01T10:42:42.311Z,94264.63
2019-04-01T10:45:37.010Z,94263.17
2019-04-01T10:48:06.293Z,94259.55
2019-04-01T10:50:35.321Z,94251.88
2019-04-01T10:56:36.063Z,94254.48
2019-04-01T10:59:18.621Z,94236.88
2019-04-01T11:01:48.285Z,94247.68
2019-04-01T11:04:17.208Z,94246.37
2019-04-01T11:06:46.182Z,94242.78
2019-04-01T11:09:37.760Z,94235.77
2019-04-01T11:11:55.957Z,94242.62
2019-04-01T11:14:25.676Z,94232.48
2019-04-01T11:16:54.963Z,94232.34
2019-04-01T11:19:23.756Z,94226.61
2019-04-01T11:21:52.416Z,94226.36
2019-04-01T11:24:21.758Z,94212.41
2019-04-01T11:27:20.350Z,94217.55
2019-04-01T11:29:49.029Z,94213.48
2019-04-01T11:32:17.827Z,94206.28
2019-04-01T11:34:47.153Z,94205.70
2019-04-01T11:40:28.391Z,94197.78
2019-04-01T11:45:55.834Z,94202.45
2019-04-01T11:48:24.631Z,94202.22
2019-04-01T11:50:53.977Z,94200.27
2019-04-01T11:53:23.019Z,94195.56
2019-04-01T11:55:51.842Z,94190.15
2019-04-01T11:58:20.657Z,94188.09
2019-04-01T12:00:49.384Z,94189.33
2019-04-01T12:03:19.088Z,94188.16
2019-04-01T12:05:48.930Z,94183.78
2019-04-01T12:08:17.636Z,94180.89
2019-04-01T12:10:46.906Z,94179.77
2019-04-01T12:13:15.589Z,94182.50
2019-04-01T12:15:44.634Z,94180.75
2019-04-01T12:18:13.335Z,94176.61
2019-04-01T12:20:42.096Z,94178.19
2019-04-01T12:23:10.823Z,94175.86
2019-04-01T12:25:39.497Z,94173.11
2019-04-01T12:28:08.294Z,94172.98
2019-04-01T12:30:37.074Z,94166.06
2019-04-01T12:33:05.880Z,94157.69
2019-04-01T12:35:35.642Z,94158.73
2019-04-01T12:38:05.010Z,94160.81
2019-04-01T12:40:33.718Z,94168.16
2019-04-01T12:43:02.532Z,94160.45
2019-04-01T12:45:31.234Z,94155.22
2019-04-01T12:48:00.024Z,94146.87
2019-04-01T12:50:28.744Z,94148.80
2019-04-01T12:52:57.432Z,94149.61
2019-04-01T12:55:26.241Z,94156.00
2019-04-01T12:57:54.953Z,94155.63
2019-04-01T13:00:23.653Z,94148.60
2019-04-01T13:02:52.580Z,94147.78
2019-04-01T13:05:22.064Z,94135.92
2019-04-01T13:07:54.189Z,94147.03
2019-04-01T13:10:22.523Z,94144.16
2019-04-01T13:12:53.993Z,94134.84
2019-04-01T13:15:21.849Z,94142.54
2019-04-01T13:17:50.667Z,94124.61
2019-04-01T13:20:19.344Z,94130.98
2019-04-01T13:22:49.854Z,94130.00
2019-04-01T13:25:18.520Z,94128.81
2019-04-01T13:27:47.238Z,94128.12
2019-04-01T13:30:16.535Z,94139.41
2019-04-01T13:32:46.363Z,94131.89
2019-04-01T13:35:15.155Z,94125.44
2019-04-01T13:37:43.863Z,94132.28
2019-04-01T13:40:13.326Z,94129.23
2019-04-01T13:42:43.336Z,94124.59
2019-04-01T13:45:12.744Z,94122.01
2019-04-01T13:47:41.549Z,94132.17
2019-04-01T13:50:16.470Z,94125.84
2019-04-01T13:52:45.539Z,94120.09
2019-04-01T13:55:14.544Z,94128.84
2019-04-01T13:57:43.390Z,94114.59
2019-04-01T14:00:12.644Z,94128.55
2019-04-01T14:02:41.472Z,94128.00
2019-04-01T14:05:10.587Z,94125.70
2019-04-01T14:07:39.293Z,94125.06
2019-04-01T14:10:08.211Z,94121.80
2019-04-01T14:12:36.836Z,94124.42
2019-04-01T14:15:10.230Z,94125.27
2019-04-01T14:17:39.039Z,94126.51
2019-04-01T14:20:07.954Z,94128.72
2019-04-01T14:22:36.867Z,94128.77
2019-04-01T14:25:07.563Z,94132.34
2019-04-01T14:27:36.390Z,94130.64
2019-04-01T14:30:06.891Z,94127.38
2019-04-01T14:32:36.428Z,94130.34
2019-04-01T14:35:06.736Z,94099.98
2019-04-01T14:37:35.398Z,94135.72
2019-04-01T14:40:05.704Z,94130.08
2019-04-01T14:42:37.152Z,94135.92
2019-04-01T14:45:06.037Z,94134.09
2019-04-01T14:47:34.986Z,94129.25
2019-04-01T14:50:07.541Z,94135.96
2019-04-01T14:52:34.608Z,94135.49
2019-04-01T14:55:03.317Z,94132.41
2019-04-01T14:57:32.016Z,94134.30
2019-04-01T15:00:00.850Z,94136.81
2019-04-01T15:02:29.785Z,94136.57
2019-04-01T15:04:58.716Z,94139.89
2019-04-01T15:07:27.426Z,94141.02
2019-04-01T15:09:56.149Z,94138.95
2019-04-01T15:12:24.840Z,94143.30
2019-04-01T15:14:53.539Z,94139.31
2019-04-01T15:17:23.151Z,94140.11
2019-04-01T15:19:51.835Z,94135.53
2019-04-01T15:22:20.805Z,94145.98
2019-04-01T15:24:49.545Z,94137.88
2019-04-01T15:27:18.301Z,94138.81
2019-04-01T15:29:46.965Z,94140.53
2019-04-01T15:32:15.731Z,94140.98
2019-04-01T15:34:44.426Z,94138.84
2019-04-01T15:37:13.138Z,94145.89
2019-04-01T15:39:41.934Z,94145.64
2019-04-01T15:42:10.746Z,94143.55
2019-04-01T15:44:39.530Z,94146.87
2019-04-01T15:47:08.826Z,94151.33
2019-04-01T15:49:38.058Z,94152.75
2019-04-01T15:52:06.818Z,94146.57
2019-04-01T15:54:35.510Z,94155.64
2019-04-01T15:57:04.297Z,94157.13
2019-04-01T15:59:33.914Z,94154.16
2019-04-01T16:02:03.443Z,94151.89
2019-04-01T16:04:32.261Z,94158.45
2019-04-01T16:07:01.092Z,94155.11
2019-04-01T16:09:29.764Z,94150.86
2019-04-01T16:11:58.542Z,94165.50
2019-04-01T16:14:27.296Z,94170.09
2019-04-01T16:16:55.961Z,94166.90
2019-04-01T16:19:24.650Z,94169.26
2019-04-01T16:21:53.425Z,94174.02
2019-04-01T16:24:22.164Z,94172.84
2019-04-01T16:26:50.857Z,94170.25
2019-04-01T16:29:19.539Z,94176.63
2019-04-01T16:31:48.239Z,94176.26
2019-04-01T16:34:17.037Z,94178.53
2019-04-01T16:36:45.789Z,94180.29
2019-04-01T16:39:15.914Z,94183.60
2019-04-01T16:41:44.633Z,94184.70
2019-04-01T16:44:14.298Z,94187.31
2019-04-01T16:46:43.812Z,94186.72
2019-04-01T16:49:12.505Z,94191.44
2019-04-01T16:51:41.504Z,94109.90
2019-04-01T16:54:11.601Z,94196.13
2019-04-01T16:56:40.328Z,94188.30
2019-04-01T16:59:09.011Z,94196.13
2019-04-01T17:01:41.486Z,94196.89
2019-04-01T17:04:09.841Z,94198.78
2019-04-01T17:06:38.520Z,94205.52
2019-04-01T17:09:08.708Z,94203.28
2019-04-01T17:11:37.383Z,94210.54
2019-04-01T17:14:08.890Z,94212.94
2019-04-01T17:16:36.465Z,94210.09
2019-04-01T17:19:05.149Z,94214.25
2019-04-01T17:21:34.086Z,94221.36
2019-04-01T17:24:03.301Z,94223.53
2019-04-01T17:26:32.133Z,94220.16
2019-04-01T17:29:00.834Z,94209.42
2019-04-01T17:31:29.514Z,94231.84
2019-04-01T17:33:58.194Z,94237.66
2019-04-01T17:36:26.925Z,94244.00
2019-04-01T17:38:55.623Z,94246.86
2019-04-01T17:41:24.302Z,94256.26
2019-04-01T17:43:52.982Z,94258.23
2019-04-01T17:46:21.665Z,94261.66
2019-04-01T17:48:50.357Z,94265.41
2019-04-01T17:51:19.103Z,94271.56
2019-04-01T17:53:47.785Z,94269.13
2019-04-01T17:56:17.987Z,94276.65
2019-04-01T17:58:46.760Z,94281.35
2019-04-01T18:01:15.445Z,94284.55
2019-04-01T18:03:47.410Z,94292.29
2019-04-01T18:06:16.048Z,94295.36
2019-04-01T18:08:44.716Z,94294.38
2019-04-01T18:11:16.039Z,94301.03
2019-04-01T18:13:43.814Z,94307.48
2019-04-01T18:16:14.022Z,94308.19
2019-04-01T18:18:42.884Z,94311.25
2019-04-01T18:21:11.579Z,94318.98
2019-04-01T18:23:40.371Z,94318.93
2019-04-01T18:26:09.045Z,94324.33
2019-04-01T18:28:37.757Z,94321.41
2019-04-01T18:31:06.482Z,94323.47
2019-04-01T18:33:35.322Z,94327.81
2019-04-01T18:36:04.064Z,94329.82
2019-04-01T18:38:32.821Z,94332.22
2019-04-01T18:41:01.503Z,94327.12
2019-04-01T18:43:30.184Z,94331.22
2019-04-01T18:45:58.926Z,94333.79
2019-04-01T18:48:27.636Z,94334.90
2019-04-01T18:50:56.311Z,94337.75
2019-04-01T18:53:28.262Z,94339.85
2019-04-01T18:55:56.723Z,94345.05
2019-04-01T18:58:25.499Z,94343.94
2019-04-01T19:00:54.160Z,94345.78
2019-04-01T19:03:24.158Z,94353.45
2019-04-01T19:05:53.100Z,94353.55
2019-04-01T19:08:21.775Z,94354.66
2019-04-01T19:11:01.779Z,94349.44
2019-04-01T19:13:20.991Z,94351.91
2019-04-01T19:15:50.672Z,94354.48
2019-04-01T19:18:20.272Z,94358.62
2019-04-01T19:20:56.097Z,94358.41
2019-04-01T19:23:19.413Z,94366.95
2019-04-01T19:25:48.191Z,94362.84
2019-04-01T19:28:18.458Z,94361.71
2019-04-01T19:30:47.693Z,94362.25
2019-04-01T19:33:17.938Z,94366.48
2019-04-01T19:35:46.592Z,94364.55
2019-04-01T19:38:15.288Z,94372.81
2019-04-01T19:40:43.974Z,94379.01
2019-04-01T19:43:12.741Z,94378.02
2019-04-01T19:45:42.195Z,94383.86
2019-04-01T19:48:10.880Z,94389.42
2019-04-01T19:50:39.559Z,94380.47
2019-04-01T19:53:08.271Z,94384.97
2019-04-01T19:55:36.950Z,94391.09
2019-04-01T19:58:05.637Z,94388.39
2019-04-01T20:00:34.354Z,94396.09
2019-04-01T20:03:03.044Z,94396.23
2019-04-01T20:05:31.747Z,94396.47
2019-04-01T20:08:00.423Z,94393.89
2019-04-01T20:10:29.101Z,94395.01
2019-04-01T20:12:57.789Z,94399.23
2019-04-01T20:15:26.467Z,94405.07
2019-04-01T20:17:56.592Z,94402.23
2019-04-01T20:20:25.305Z,94405.47
2019-04-01T20:22:54.471Z,94405.34
2019-04-01T20:25:23.222Z,94411.03
2019-04-01T20:27:51.890Z,94407.81
2019-04-01T20:30:22.444Z,94407.91
2019-04-01T20:32:51.110Z,94413.48
2019-04-01T20:35:23.735Z,94413.23
2019-04-01T20:37:50.226Z,94411.01
2019-04-01T20:40:19.451Z,94412.87
2019-04-01T20:42:48.130Z,94388.08
2019-04-01T20:45:16.906Z,94409.51
2019-04-01T20:47:45.592Z,94415.30
2019-04-01T20:50:14.857Z,94419.64
2019-04-01T20:52:43.528Z,94424.93
2019-04-01T20:55:13.499Z,94423.34
2019-04-01T20:57:42.684Z,94427.89
2019-04-01T21:00:11.469Z,94431.51
2019-04-01T21:02:40.260Z,94426.33
2019-04-01T21:05:09.739Z,94426.33
2019-04-01T21:07:38.413Z,94426.72
2019-04-01T21:10:13.166Z,94430.78
2019-04-01T21:12:42.852Z,94434.73
2019-04-01T21:15:11.723Z,94429.37
2019-04-01T21:17:40.437Z,94428.56
2019-04-01T21:20:09.217Z,94428.52
2019-04-01T21:22:37.882Z,94433.03
2019-04-01T21:25:08.041Z,94432.75
2019-04-01T21:27:36.709Z,94433.69
2019-04-01T21:30:10.638Z,94436.12
2019-04-01T21:32:39.335Z,94445.48
2019-04-01T21:35:09.073Z,94442.52
2019-04-01T21:37:38.298Z,94447.33
2019-04-01T21:40:07.886Z,94440.75
2019-04-01T21:42:37.071Z,94445.98
2019-04-01T21:45:09.709Z,94451.70
2019-04-01T21:47:38.376Z,94438.08
2019-04-01T21:50:08.066Z,94446.44
2019-04-01T21:52:36.753Z,94439.80
2019-04-01T21:55:08.329Z,94442.39
2019-04-01T21:57:37.170Z,94436.33
2019-04-01T22:00:14.754Z,94440.41
2019-04-01T22:02:44.070Z,94448.72
2019-04-01T22:05:13.412Z,94449.45
2019-04-01T22:07:42.151Z,94445.48
2019-04-01T22:10:11.761Z,94448.55
2019-04-01T22:12:40.502Z,94444.97
2019-04-01T22:15:09.341Z,94443.85
2019-04-01T22:17:38.183Z,94452.15
2019-04-01T22:20:07.868Z,94446.34
2019-04-01T22:22:37.530Z,94444.69
2019-04-01T22:25:06.783Z,94440.00
2019-04-01T22:27:35.580Z,94451.89
2019-04-01T22:30:09.067Z,94450.55
2019-04-01T22:32:37.795Z,94454.76
2019-04-01T22:35:08.514Z,94449.22
2019-04-01T22:37:37.971Z,94450.84
2019-04-01T22:40:07.831Z,94456.61
2019-04-01T22:42:36.507Z,94453.36
2019-04-01T22:45:07.975Z,94449.88
2019-04-01T22:47:36.815Z,94448.81
2019-04-01T22:50:06.958Z,94447.80
2019-04-01T22:52:35.890Z,94452.19
2019-04-01T22:55:06.188Z,94445.36
2019-04-01T22:57:35.029Z,94441.25
2019-04-01T23:00:04.597Z,94444.91
2019-04-01T23:02:33.268Z,94449.12
2019-04-01T23:05:01.967Z,94451.55
2019-04-01T23:07:30.665Z,94448.86
2019-04-01T23:09:59.337Z,94454.36
2019-04-01T23:12:27.994Z,94448.66
2019-04-01T23:14:56.680Z,94452.55
2019-04-01T23:17:25.374Z,94458.81
2019-04-01T23:19:54.126Z,94431.72
2019-04-01T23:22:22.802Z,94456.94
2019-04-01T23:24:51.516Z,94451.33
2019-04-01T23:27:20.150Z,94453.42
2019-04-01T23:29:48.815Z,94449.70
2019-04-01T23:32:17.499Z,94444.68
2019-04-01T23:34:46.252Z,94447.61
2019-04-01T23:37:14.926Z,94444.96
2019-04-01T23:39:43.581Z,94445.94
2019-04-01T23:42:12.238Z,94444.05
2019-04-01T23:44:40.918Z,94440.00
2019-04-01T23:47:09.591Z,94442.41
2019-04-01T23:49:40.255Z,94427.92
2019-04-01T23:52:08.675Z,94430.64
2019-04-01T23:54:37.335Z,94430.39
2019-04-01T23:57:06.024Z,94437.77
2019-04-01T23:59:34.715Z,94442.33
